MDT,Max TemperatureF,Mean TemperatureF,Min TemperatureF,Max Dew PointF,MeanDew PointF,Min DewpointF,Max Humidity, Mean Humidity, Min Humidity, Max Sea Level PressureIn, Mean Sea Level PressureIn, Min Sea Level PressureIn, Max VisibilityMiles, Mean VisibilityMiles, Min VisibilityMiles, Max Wind SpeedMPH, Mean Wind SpeedMPH, Max Gust SpeedMPH,PrecipitationIn, CloudCover, Events, WindDirDegrees
2013-4-1,67,49,30,31,28,24,85,53,20,30.04,30.00,29.93,10,10,9,20,4,24,0.00,0,,37
2013-4-2,68,47,26,38,32,25,92,63,34,30.08,30.01,29.94,10,10,10,20,7,25,T,1,Rain,211
2013-4-3,63,48,33,41,35,29,92,61,29,30.10,30.05,30.00,10,10,10,21,6,24,T,5,,196
2013-4-4,61,44,27,45,35,26,100,68,36,30.06,29.92,29.73,10,10,10,15,3,18,0.06,4,Rain,223
2013-4-5,54,49,43,44,39,36,86,68,50,29.86,29.79,29.73,10,10,10,24,10,28,T,6,Rain,196
2013-4-6,54,44,34,44,36,28,83,62,41,29.87,29.82,29.79,10,10,10,24,9,33,0.02,7,Rain,181
2013-4-7,47,37,26,39,32,25,100,81,62,29.84,29.72,29.62,10,8,1,23,7,30,0.26,7,Rain-Snow,20
2013-4-8,42,34,25,26,19,14,85,62,38,30.32,30.10,29.84,10,10,8,24,15,31,0.00,4,Snow,25
2013-4-9,45,33,20,25,18,13,85,61,37,30.45,30.35,30.27,10,10,10,13,4,18,0.00,4,,44
2013-4-10,48,40,31,42,32,26,100,79,58,30.25,30.02,29.81,10,10,8,39,3,61,0.03,8,Rain,186
2013-4-11,51,43,34,38,32,27,92,66,39,30.07,29.99,29.92,10,10,10,22,8,30,0.01,7,Rain,227
2013-4-12,52,37,22,37,29,21,92,67,42,30.12,29.96,29.60,10,9,2,18,6,25,0.08,5,Rain,159
2013-4-13,43,38,32,37,30,21,100,72,43,29.79,29.56,29.45,10,8,0,28,8,37,0.21,8,Fog-Rain-Snow,199
2013-4-14,45,36,27,32,25,12,100,66,31,30.02,29.84,29.72,10,6,1,26,12,33,0.03,6,Snow,42
2013-4-15,40,33,26,12,10,9,50,40,29,30.23,30.11,30.01,10,10,10,23,15,30,0.00,4,,37
2013-4-16,41,33,24,16,12,8,63,45,27,30.43,30.31,30.19,10,10,10,20,11,28,0.00,4,,23
2013-4-17,48,32,16,18,14,10,80,54,28,30.44,30.37,30.28,10,10,10,23,5,130,0.00,0,,143
2013-4-18,54,37,20,30,23,17,84,58,32,30.29,30.24,30.17,10,10,10,21,8,25,0.00,3,,170
2013-4-19,47,43,39,45,38,30,93,78,62,30.15,29.95,29.87,10,10,8,20,12,24,0.16,8,Rain,152
2013-4-20,57,46,35,41,37,29,92,68,43,30.02,29.95,29.90,10,9,5,25,10,33,0.46,7,Rain,200
2013-4-21,35,30,25,36,25,13,85,68,50,30.38,30.14,29.99,10,7,1,24,16,31,0.04,7,Rain-Snow,27
2013-4-22,44,33,21,22,16,10,81,56,30,30.55,30.47,30.40,10,10,10,26,9,29,0.00,0,,90
2013-4-23,49,35,21,30,24,19,92,67,42,30.41,30.33,30.24,10,10,10,13,4,17,T,3,,152
2013-4-24,62,42,21,31,26,20,92,56,20,30.32,30.16,29.96,10,10,9,21,6,28,0.00,0,,215
2013-4-25,68,48,27,33,29,25,92,57,22,30.02,29.91,29.83,10,10,10,21,7,31,0.00,3,,225
2013-4-26,73,51,28,37,32,26,92,56,19,30.13,30.08,30.02,10,10,10,23,7,36,0.00,0,,251
2013-4-27,64,53,42,37,32,23,76,49,21,30.04,29.98,29.92,10,10,10,26,11,37,0.00,4,,207
2013-4-28,61,54,46,37,33,28,71,52,33,29.99,29.92,29.76,10,10,10,24,10,32,T,7,,209
2013-4-29,51,43,34,35,30,25,82,63,44,29.88,29.69,29.57,10,9,2,28,12,39,0.02,6,Rain-Snow,228
2013-4-30,45,33,20,32,28,20,92,72,51,30.34,30.09,29.91,10,8,1,20,4,23,0.02,4,Snow,177